createdAt,value
2023-05-21T00:01:55.739Z,63.63867
2023-05-21T00:06:55.480Z,63.71094
2023-05-21T00:11:55.450Z,63.84473
2023-05-21T00:16:55.414Z,63.94141
2023-05-21T00:21:55.877Z,64.38184
2023-05-21T00:26:55.477Z,64.3623
2023-05-21T00:31:56.028Z,64.28906
2023-05-21T00:36:55.762Z,64.26953
2023-05-21T00:41:56.758Z,64.64551
2023-05-21T00:46:57.340Z,64.2627
2023-05-21T00:51:55.719Z,64.0625
2023-05-21T00:56:56.068Z,64.41113
2023-05-21T01:01:56.606Z,64.22363
2023-05-21T01:06:56.246Z,64.69238
2023-05-21T01:11:55.735Z,64.66699
2023-05-21T01:16:56.273Z,64.85156
2023-05-21T01:21:56.637Z,64.91113
2023-05-21T01:26:55.477Z,64.91211
2023-05-21T01:32:03.296Z,65.33789
2023-05-21T01:36:59.499Z,65.60059
2023-05-21T01:41:57.343Z,65.54297
2023-05-21T01:46:56.547Z,65.95117
2023-05-21T01:51:55.717Z,66.3291
2023-05-21T01:56:55.644Z,66.50879
2023-05-21T02:01:55.646Z,67.02344
2023-05-21T02:06:55.558Z,67.19336
2023-05-21T02:11:55.530Z,67.55078
2023-05-21T02:16:56.796Z,67.66309
2023-05-21T02:21:55.581Z,68.52441
2023-05-21T02:26:55.678Z,69.33203
2023-05-21T02:31:55.581Z,70.11426
2023-05-21T02:36:56.058Z,71.09375
2023-05-21T02:41:55.556Z,71.64063
2023-05-21T02:46:55.564Z,72.61523
2023-05-21T02:51:55.575Z,73.35352
2023-05-21T02:56:55.617Z,74.07324
2023-05-21T03:01:55.599Z,74.5332
2023-05-21T03:06:56.460Z,75.01074
2023-05-21T03:11:55.628Z,75.30957
2023-05-21T03:16:55.645Z,75.74707
2023-05-21T03:21:56.407Z,75.95605
2023-05-21T03:26:55.628Z,76.33008
2023-05-21T03:31:55.711Z,76.71973
2023-05-21T03:36:55.655Z,76.95898
2023-05-21T03:41:55.782Z,77.27832
2023-05-21T03:46:55.677Z,77.2168
2023-05-21T03:51:55.888Z,77.3877
2023-05-21T03:56:55.650Z,77.58594
2023-05-21T04:01:55.725Z,77.53125
2023-05-21T04:06:55.699Z,77.35938
2023-05-21T04:11:55.852Z,77.3623
2023-05-21T04:16:56.670Z,77.22363
2023-05-21T04:21:56.094Z,76.96777
2023-05-21T04:26:55.993Z,76.65039
2023-05-21T04:31:55.677Z,76.37793
2023-05-21T04:36:56.690Z,76.03516
2023-05-21T04:41:56.476Z,75.94727
2023-05-21T04:46:57.347Z,75.55176
2023-05-21T04:51:55.728Z,75.54004
2023-05-21T04:56:55.839Z,75.1709
2023-05-21T05:01:55.692Z,74.8916
2023-05-21T05:06:55.776Z,74.29395
2023-05-21T05:11:55.791Z,73.94922
2023-05-21T05:16:59.905Z,73.59863
2023-05-21T05:21:55.782Z,73.09375
2023-05-21T05:26:55.789Z,72.60938
2023-05-21T05:31:55.735Z,72.01172
2023-05-21T05:36:57.180Z,71.66406
2023-05-21T05:41:55.747Z,71.43555
2023-05-21T05:46:55.966Z,70.64941
2023-05-21T05:51:56.603Z,70.21484
2023-05-21T05:56:55.873Z,69.8623
2023-05-21T06:01:55.752Z,69.39355
2023-05-21T06:06:57.392Z,67.95703
2023-05-21T06:11:55.770Z,67.81738
2023-05-21T06:16:55.754Z,67.42773
2023-05-21T06:21:55.934Z,66.17578
2023-05-21T06:26:55.978Z,65.84082
2023-05-21T06:31:55.865Z,66.01758
2023-05-21T06:36:55.808Z,64.3584
2023-05-21T06:41:55.793Z,63.94629
2023-05-21T06:46:55.818Z,61.49316
2023-05-21T06:51:55.833Z,58.25488
2023-05-21T06:56:55.842Z,56.2627
2023-05-21T07:01:55.891Z,54.51758
2023-05-21T07:06:56.508Z,53.54785
2023-05-21T07:11:56.098Z,52.17578
2023-05-21T07:16:55.877Z,50.82324
2023-05-21T07:21:56.540Z,48.45215
2023-05-21T07:26:55.885Z,48.82813
2023-05-21T07:31:55.855Z,49.8916
2023-05-21T07:36:55.808Z,50.33008
2023-05-21T07:41:55.803Z,49.05469
2023-05-21T07:46:55.813Z,48.47266
2023-05-21T07:51:55.886Z,46.0791
2023-05-21T07:56:56.305Z,46.92383
2023-05-21T08:01:55.874Z,47.95996
2023-05-21T08:06:56.368Z,47.49512
2023-05-21T08:11:55.901Z,48.36914
2023-05-21T08:16:55.916Z,50.18652
2023-05-21T08:21:56.053Z,51.18555
2023-05-21T08:26:55.943Z,50.65039
2023-05-21T08:31:56.312Z,50.50879
2023-05-21T08:36:55.842Z,50.50684
2023-05-21T08:42:00.487Z,49.53223
2023-05-21T08:46:57.836Z,48.93652
2023-05-21T08:51:57.006Z,47.03125
2023-05-21T08:56:57.051Z,45.31055
2023-05-21T09:01:57.466Z,42.89355
2023-05-21T09:06:57.770Z,42.06543
2023-05-21T09:11:55.933Z,40.36523
2023-05-21T09:16:56.009Z,39.38281
2023-05-21T09:21:56.295Z,39.36816
2023-05-21T09:26:55.976Z,38.05371
2023-05-21T09:31:56.137Z,38.4502
2023-05-21T09:37:01.546Z,36.0625
2023-05-21T09:41:55.967Z,34.99707
2023-05-21T09:47:00.526Z,34.5791
2023-05-21T09:51:58.531Z,35.61914
2023-05-21T09:56:56.298Z,35.99512
2023-05-21T10:01:57.961Z,36.54395
2023-05-21T10:06:56.494Z,38.0957
2023-05-21T10:11:58.225Z,36.46289
2023-05-21T10:16:56.380Z,36.84375
2023-05-21T10:21:57.102Z,37.97852
2023-05-21T10:26:56.273Z,38.44531
2023-05-21T10:31:56.519Z,38.86719
2023-05-21T10:36:57.088Z,38.58691
2023-05-21T10:42:00.715Z,38.93164
2023-05-21T10:47:04.512Z,39.13379
2023-05-21T10:51:58.569Z,40.63574
2023-05-21T10:57:03.130Z,39.90723
2023-05-21T11:01:57.014Z,39.55859
2023-05-21T11:06:56.326Z,39.26367
2023-05-21T11:12:00.883Z,37.0459
2023-05-21T11:16:56.948Z,36.7373
2023-05-21T11:21:59.073Z,36.26758
2023-05-21T11:27:08.698Z,35.10547
2023-05-21T11:32:05.669Z,34.53418
2023-05-21T11:37:06.019Z,34.46973
2023-05-21T11:42:04.075Z,36.29004
2023-05-21T11:46:56.192Z,38.0957
2023-05-21T11:51:56.538Z,37.91699
2023-05-21T11:56:56.557Z,38.83203
2023-05-21T12:01:56.103Z,35.96191
2023-05-21T12:06:58.390Z,36.16113
2023-05-21T12:11:57.056Z,36.27832
2023-05-21T12:16:56.186Z,34.81641
2023-05-21T12:21:56.293Z,35.06738
2023-05-21T12:26:59.242Z,35.87988
2023-05-21T12:31:56.339Z,36.95313
2023-05-21T12:36:56.142Z,35.79688
2023-05-21T12:41:57.341Z,36.05566
2023-05-21T12:46:56.202Z,35.78613
2023-05-21T12:51:56.167Z,35.30664
2023-05-21T12:56:56.725Z,34.49414
2023-05-21T13:01:56.902Z,36.50098
2023-05-21T13:06:56.121Z,36.19336
2023-05-21T13:11:56.154Z,37.40234
2023-05-21T13:16:56.279Z,37.22559
2023-05-21T13:21:56.524Z,36.80762
2023-05-21T13:26:56.255Z,37.12305
2023-05-21T13:31:56.295Z,37.60156
2023-05-21T13:36:56.209Z,37.91016
2023-05-21T13:41:56.224Z,37.24414
2023-05-21T13:46:56.318Z,38.61719
2023-05-21T13:51:57.964Z,38.48145
2023-05-21T13:56:56.479Z,38.83789
2023-05-21T14:01:57.955Z,38.51074
2023-05-21T14:06:56.655Z,38.2666
2023-05-21T14:11:57.052Z,39.83008
2023-05-21T14:16:56.336Z,40.53711
2023-05-21T14:21:56.621Z,41.93457
2023-05-21T14:26:56.278Z,42.4873
2023-05-21T14:31:56.366Z,41.52734
2023-05-21T14:36:56.301Z,41.38184
2023-05-21T14:41:56.324Z,40.76758
2023-05-21T14:46:56.330Z,39.39258
2023-05-21T14:51:56.242Z,38.96387
2023-05-21T14:56:56.249Z,38.4834
2023-05-21T15:01:56.647Z,36.96777
2023-05-21T15:06:56.240Z,38.04395
2023-05-21T15:11:56.304Z,37.08887
2023-05-21T15:16:56.333Z,37.33984
2023-05-21T15:21:56.306Z,37.6748
2023-05-21T15:26:56.327Z,40.52637
2023-05-21T15:31:56.431Z,40.52539
2023-05-21T15:36:57.825Z,41.12988
2023-05-21T15:41:57.027Z,39.67676
2023-05-21T15:46:56.403Z,39.49121
2023-05-21T15:51:57.818Z,39.04688
2023-05-21T15:56:56.337Z,37.57031
2023-05-21T16:01:56.363Z,38.29492
2023-05-21T16:06:56.345Z,38.89941
2023-05-21T16:11:56.381Z,38.23926
2023-05-21T16:16:56.505Z,38.0332
2023-05-21T16:21:56.416Z,39.8291
2023-05-21T16:26:56.388Z,37.92285
2023-05-21T16:31:56.386Z,38.2207
2023-05-21T16:36:56.550Z,38.07617
2023-05-21T16:41:59.477Z,38.43262
2023-05-21T16:46:56.449Z,36.58594
2023-05-21T16:51:56.430Z,37.35254
2023-05-21T16:56:56.543Z,37.51953
2023-05-21T17:01:56.609Z,37.01855
2023-05-21T17:06:56.508Z,37.35059
2023-05-21T17:11:56.531Z,39.8125
2023-05-21T17:16:56.451Z,40.18359
2023-05-21T17:21:58.099Z,40.71875
2023-05-21T17:26:56.608Z,41.77051
2023-05-21T17:31:56.656Z,43.18848
2023-05-21T17:36:57.561Z,44.73145
2023-05-21T17:41:56.508Z,45.60352
2023-05-21T17:46:56.652Z,45.15723
2023-05-21T17:51:57.130Z,46.02637
2023-05-21T17:56:56.511Z,46.86328
2023-05-21T18:01:57.686Z,48.56348
2023-05-21T18:06:56.526Z,49.16504
2023-05-21T18:11:57.903Z,50.22754
2023-05-21T18:16:56.731Z,51.21973
2023-05-21T18:21:56.593Z,50.99609
2023-05-21T18:26:56.511Z,51.77734
2023-05-21T18:31:56.641Z,52.73242
2023-05-21T18:36:58.617Z,53.1377
2023-05-21T18:46:57.601Z,54.6084
2023-05-21T18:51:56.596Z,54.51367
2023-05-21T18:56:59.512Z,55.61914
2023-05-21T19:01:56.622Z,56.88574
2023-05-21T19:06:56.517Z,57.38281
2023-05-21T19:11:57.187Z,58.5752
2023-05-21T19:16:56.599Z,58.81152
2023-05-21T19:21:56.704Z,59.91699
2023-05-21T19:26:56.624Z,60.23145
2023-05-21T19:31:57.234Z,60.69531
2023-05-21T19:36:56.594Z,61.39063
2023-05-21T19:41:56.631Z,61.22559
2023-05-21T19:46:56.628Z,61.93848
2023-05-21T19:51:56.763Z,62.66016
2023-05-21T19:56:56.757Z,62.68262
2023-05-21T20:01:56.773Z,63.37988
2023-05-21T20:06:56.691Z,63.9502
2023-05-21T20:11:56.984Z,64.56348
2023-05-21T20:16:58.377Z,65.3418
2023-05-21T20:21:56.672Z,65.9541
2023-05-21T20:26:56.632Z,66.06641
2023-05-21T20:31:56.660Z,67.23438
2023-05-21T20:36:57.825Z,68.20117
2023-05-21T20:41:58.017Z,69.02832
2023-05-21T20:46:57.469Z,69.9082
2023-05-21T20:51:56.709Z,70.56055
2023-05-21T20:56:58.890Z,71.1084
2023-05-21T21:01:57.140Z,71.7998
2023-05-21T21:06:56.959Z,72.37402
2023-05-21T21:11:56.704Z,72.81641
2023-05-21T21:16:56.789Z,73.37988
2023-05-21T21:21:56.787Z,73.93457
2023-05-21T21:26:56.727Z,73.9043
2023-05-21T21:31:56.767Z,74.06934
2023-05-21T21:36:57.322Z,73.90039
2023-05-21T21:41:56.699Z,73.92383
2023-05-21T21:46:56.729Z,73.6582
2023-05-21T21:51:57.674Z,73.21289
2023-05-21T21:56:56.725Z,73.67285
2023-05-21T22:01:56.746Z,73.83691
2023-05-21T22:06:57.205Z,73.86523
2023-05-21T22:11:57.590Z,74.08301
2023-05-21T22:16:57.022Z,74.39063
2023-05-21T22:21:59.778Z,75
2023-05-21T22:26:56.745Z,75.44824
2023-05-21T22:31:56.753Z,75.57031
2023-05-21T22:36:56.758Z,75.39746
2023-05-21T22:41:57.038Z,75.1875
2023-05-21T22:47:00.152Z,75.57324
2023-05-21T22:51:59.205Z,76.1123
2023-05-21T22:56:56.790Z,76.97656
2023-05-21T23:01:56.987Z,78.03516
2023-05-21T23:06:56.833Z,78.87695
2023-05-21T23:11:56.834Z,79.94531
2023-05-21T23:17:02.024Z,80.37598
2023-05-21T23:21:56.838Z,80.39648
2023-05-21T23:27:01.647Z,80.56543
2023-05-21T23:31:56.911Z,80.60254
2023-05-21T23:36:58.745Z,80.56055
2023-05-21T23:41:57.013Z,80.73535
2023-05-21T23:46:56.834Z,80.86426
2023-05-21T23:51:57.044Z,81.00488
2023-05-21T23:56:56.874Z,80.75781
